createdAt,value
2022-11-01T00:00:28.780Z,10.20
2022-11-01T00:02:59.103Z,10.27
2022-11-01T00:05:29.623Z,10.23
2022-11-01T00:07:57.757Z,9.67
2022-11-01T00:10:27.238Z,10.17
2022-11-01T00:12:55.950Z,10.50
2022-11-01T00:15:24.306Z,9.23
2022-11-01T00:17:52.388Z,9.63
2022-11-01T00:20:22.670Z,10.07
2022-11-01T00:22:50.822Z,9.00
2022-11-01T00:25:18.869Z,9.67
2022-11-01T00:27:50.848Z,9.90
2022-11-01T00:30:21.283Z,9.70
2022-11-01T00:32:51.641Z,9.00
2022-11-01T00:35:19.809Z,9.00
2022-11-01T00:37:47.998Z,8.93
2022-11-01T00:40:16.351Z,8.77
2022-11-01T00:42:44.648Z,7.60
2022-11-01T00:45:14.093Z,8.47
2022-11-01T00:47:42.210Z,8.67
2022-11-01T00:50:10.521Z,8.07
2022-11-01T00:52:38.655Z,8.23
2022-11-01T00:55:09.821Z,8.40
2022-11-01T00:57:38.246Z,9.20
2022-11-01T01:00:07.460Z,8.47
2022-11-01T01:02:39.360Z,8.20
2022-11-01T01:05:08.853Z,7.83
2022-11-01T01:07:37.334Z,6.63
2022-11-01T01:10:07.089Z,7.83
2022-11-01T01:12:35.369Z,7.33
2022-11-01T01:15:03.771Z,6.63
2022-11-01T01:17:33.893Z,7.53
2022-11-01T01:20:06.431Z,7.60
2022-11-01T01:22:34.587Z,6.73
2022-11-01T01:25:05.086Z,7.63
2022-11-01T01:27:33.275Z,7.20
2022-11-01T01:30:03.455Z,6.80
2022-11-01T01:32:31.579Z,7.17
2022-11-01T01:34:59.659Z,6.03
2022-11-01T01:37:29.340Z,7.03
2022-11-01T01:40:00.223Z,6.43
2022-11-01T01:42:32.854Z,7.07
2022-11-01T01:45:24.875Z,5.73
2022-11-01T01:47:57.571Z,6.07
2022-11-01T01:50:32.224Z,6.50
2022-11-01T01:53:07.683Z,6.23
2022-11-01T01:55:40.403Z,6.00
2022-11-01T01:58:14.023Z,6.40
2022-11-01T02:00:44.720Z,6.23
2022-11-01T02:03:13.862Z,6.40
2022-11-01T02:05:49.733Z,6.60
2022-11-01T02:08:27.641Z,6.43
2022-11-01T02:10:58.002Z,7.17
2022-11-01T02:13:29.142Z,6.20
2022-11-01T02:16:24.189Z,5.57
2022-11-01T02:19:05.111Z,6.50
2022-11-01T02:21:57.478Z,6.07
2022-11-01T02:24:50.993Z,5.57
2022-11-01T02:27:35.381Z,5.47
2022-11-01T02:30:08.905Z,5.93
2022-11-01T02:32:55.884Z,6.50
2022-11-01T02:35:27.762Z,5.57
2022-11-01T02:38:05.334Z,6.53
2022-11-01T02:40:41.440Z,5.97
2022-11-01T02:43:17.198Z,5.80
2022-11-01T02:45:49.830Z,5.50
2022-11-01T02:48:22.733Z,5.87
2022-11-01T02:50:56.028Z,6.07
2022-11-01T02:53:24.462Z,5.47
2022-11-01T02:55:53.634Z,5.50
2022-11-01T02:58:25.574Z,5.47
2022-11-01T03:00:55.650Z,5.00
2022-11-01T03:03:32.876Z,5.17
2022-11-01T03:06:10.472Z,5.50
2022-11-01T03:08:43.967Z,4.93
2022-11-01T03:11:15.079Z,5.50
2022-11-01T03:13:56.933Z,5.20
2022-11-01T03:16:32.029Z,4.90
2022-11-01T03:19:20.194Z,4.80
2022-11-01T03:21:53.794Z,4.20
2022-11-01T03:24:28.531Z,5.37
2022-11-01T03:27:04.014Z,5.40
2022-11-01T03:29:36.243Z,5.10
2022-11-01T03:32:08.489Z,4.90
2022-11-01T03:34:40.180Z,4.70
2022-11-01T03:37:13.988Z,4.33
2022-11-01T03:39:45.994Z,5.40
2022-11-01T03:42:17.598Z,4.40
2022-11-01T03:44:50.161Z,4.50
2022-11-01T03:47:18.480Z,4.80
2022-11-01T03:49:48.015Z,4.63
2022-11-01T03:52:18.447Z,4.30
2022-11-01T03:54:46.657Z,4.03
2022-11-01T03:57:16.985Z,4.40
2022-11-01T03:59:45.040Z,4.63
2022-11-01T04:02:15.366Z,4.20
2022-11-01T04:04:43.449Z,4.43
2022-11-01T04:07:12.870Z,4.07
2022-11-01T04:09:43.243Z,4.17
2022-11-01T04:12:11.369Z,4.13
2022-11-01T04:14:56.815Z,3.77
2022-11-01T04:17:44.883Z,4.00
2022-11-01T04:20:30.278Z,5.03
2022-11-01T04:23:00.181Z,3.93
2022-11-01T04:25:32.040Z,4.60
2022-11-01T04:28:04.882Z,4.63
2022-11-01T04:30:33.056Z,4.07
2022-11-01T04:33:04.002Z,4.00
2022-11-01T04:35:32.332Z,4.40
2022-11-01T04:38:02.154Z,4.20
2022-11-01T04:40:30.477Z,4.13
2022-11-01T04:42:59.777Z,3.90
2022-11-01T04:45:27.862Z,4.33
2022-11-01T04:48:08.294Z,3.83
2022-11-01T04:50:38.748Z,4.67
2022-11-01T04:53:08.888Z,3.97
2022-11-01T04:55:39.272Z,4.30
2022-11-01T04:58:10.883Z,4.53
2022-11-01T05:00:43.871Z,3.80
2022-11-01T05:03:12.454Z,4.37
2022-11-01T05:05:42.810Z,3.93
2022-11-01T05:08:13.744Z,3.70
2022-11-01T05:10:43.380Z,4.30
2022-11-01T05:13:12.685Z,4.03
2022-11-01T05:15:53.451Z,4.83
2022-11-01T05:18:29.364Z,3.67
2022-11-01T05:20:58.119Z,4.17
2022-11-01T05:23:27.547Z,3.00
2022-11-01T05:25:55.648Z,3.77
2022-11-01T05:28:23.975Z,3.23
2022-11-01T05:30:52.118Z,3.70
2022-11-01T05:33:20.250Z,3.87
2022-11-01T05:35:48.641Z,3.80
2022-11-01T05:38:18.799Z,3.73
2022-11-01T05:40:50.557Z,3.63
2022-11-01T05:43:20.983Z,3.60
2022-11-01T05:45:51.273Z,3.33
2022-11-01T05:48:21.772Z,3.30
2022-11-01T05:50:52.059Z,3.67
2022-11-01T05:53:20.147Z,3.50
2022-11-01T05:55:55.180Z,3.97
2022-11-01T05:58:29.592Z,3.50
2022-11-01T06:00:59.497Z,3.67
2022-11-01T06:03:30.102Z,3.40
2022-11-01T06:06:01.177Z,3.87
2022-11-01T06:08:32.098Z,3.67
2022-11-01T06:11:06.517Z,4.03
2022-11-01T06:13:35.335Z,3.67
2022-11-01T06:16:05.004Z,3.37
2022-11-01T06:18:33.703Z,3.30
2022-11-01T06:21:01.791Z,3.23
2022-11-01T06:23:29.901Z,3.70
2022-11-01T06:26:01.952Z,3.77
2022-11-01T06:28:31.640Z,3.53
2022-11-01T06:31:01.936Z,3.73
2022-11-01T06:33:30.123Z,3.13
2022-11-01T06:36:01.841Z,3.30
2022-11-01T06:38:29.995Z,2.80
2022-11-01T06:40:58.112Z,3.37
2022-11-01T06:43:26.618Z,3.57
2022-11-01T06:46:00.690Z,3.50
2022-11-01T06:48:31.149Z,3.20
2022-11-01T06:51:03.713Z,3.00
2022-11-01T06:53:32.197Z,3.10
2022-11-01T06:56:00.653Z,3.30
2022-11-01T06:58:30.781Z,3.20
2022-11-01T07:01:02.426Z,2.77
2022-11-01T07:03:32.926Z,3.07
2022-11-01T07:06:03.072Z,2.80
2022-11-01T07:08:31.458Z,2.33
2022-11-01T07:10:59.500Z,2.27
2022-11-01T07:13:31.032Z,1.70
2022-11-01T07:16:04.235Z,1.57
2022-11-01T07:18:32.798Z,1.40
2022-11-01T07:21:03.215Z,1.37
2022-11-01T07:23:33.753Z,1.17
2022-11-01T07:26:02.305Z,1.00
2022-11-01T07:28:32.531Z,1.03
2022-11-01T07:31:00.617Z,1.13
2022-11-01T07:33:30.107Z,1.00
2022-11-01T07:35:58.210Z,1.07
2022-11-01T07:38:26.344Z,0.97
2022-11-01T07:40:54.759Z,1.13
2022-11-01T07:43:25.385Z,1.00
2022-11-01T07:45:53.609Z,1.07
2022-11-01T07:48:22.262Z,1.27
2022-11-01T07:50:57.278Z,1.07
2022-11-01T07:53:25.804Z,1.10
2022-11-01T07:55:53.962Z,1.10
2022-11-01T07:58:24.218Z,0.90
2022-11-01T08:00:52.343Z,1.13
2022-11-01T08:03:20.908Z,1.40
2022-11-01T08:05:49.823Z,0.83
2022-11-01T08:08:19.487Z,1.10
2022-11-01T08:10:47.585Z,1.20
2022-11-01T08:13:19.001Z,1.10
2022-11-01T08:15:47.162Z,1.10
2022-11-01T08:18:15.611Z,0.93
2022-11-01T08:20:43.851Z,1.37
2022-11-01T08:23:12.770Z,1.20
2022-11-01T08:25:42.307Z,0.87
2022-11-01T08:28:14.494Z,0.80
2022-11-01T08:30:44.555Z,1.40
2022-11-01T08:33:12.944Z,1.20
2022-11-01T08:35:45.797Z,1.50
2022-11-01T08:38:19.380Z,0.87
2022-11-01T08:40:49.137Z,0.97
2022-11-01T08:43:19.804Z,0.98
2022-11-01T08:45:48.436Z,1.27
2022-11-01T08:48:16.666Z,1.30
2022-11-01T08:50:47.265Z,1.10
2022-11-01T08:53:17.565Z,0.97
2022-11-01T08:55:45.792Z,1.27
2022-11-01T08:58:15.323Z,0.80
2022-11-01T09:00:45.845Z,1.13
2022-11-01T09:03:14.090Z,1.20
2022-11-01T09:05:44.498Z,1.23
2022-11-01T09:08:12.656Z,1.50
2022-11-01T09:10:43.071Z,1.33
2022-11-01T09:13:11.565Z,1.07
2022-11-01T09:15:43.366Z,1.17
2022-11-01T09:18:11.645Z,0.87
2022-11-01T09:20:39.739Z,1.67
2022-11-01T09:23:07.911Z,1.63
2022-11-01T09:25:38.319Z,1.53
2022-11-01T09:28:08.770Z,1.70
2022-11-01T09:30:45.211Z,1.47
2022-11-01T09:33:23.607Z,1.40
2022-11-01T09:35:55.402Z,1.53
2022-11-01T09:38:30.614Z,2.10
2022-11-01T09:41:04.123Z,2.07
2022-11-01T09:43:35.500Z,1.93
2022-11-01T09:46:06.743Z,2.53
2022-11-01T09:48:38.600Z,2.00
2022-11-01T09:51:14.139Z,1.60
2022-11-01T09:53:42.736Z,2.10
2022-11-01T09:56:15.326Z,1.87
2022-11-01T09:58:53.805Z,2.43
2022-11-01T10:01:41.561Z,2.07
2022-11-01T10:04:28.545Z,1.90
2022-11-01T10:07:01.986Z,2.00
2022-11-01T10:09:41.644Z,2.33
2022-11-01T10:12:22.581Z,2.00
2022-11-01T10:15:03.277Z,2.10
2022-11-01T10:17:52.176Z,2.33
2022-11-01T10:20:28.921Z,2.40
2022-11-01T10:23:02.996Z,2.33
2022-11-01T10:25:40.071Z,2.77
2022-11-01T10:28:17.133Z,1.80
2022-11-01T10:30:50.064Z,2.67
2022-11-01T10:33:29.034Z,2.40
2022-11-01T10:36:05.302Z,2.50
2022-11-01T10:38:59.548Z,3.03
2022-11-01T10:41:33.270Z,2.50
2022-11-01T10:44:04.737Z,1.80
2022-11-01T10:46:38.275Z,2.40
2022-11-01T10:49:20.266Z,2.13
2022-11-01T10:51:52.375Z,2.40
2022-11-01T10:54:25.646Z,2.13
2022-11-01T10:57:00.609Z,1.83
2022-11-01T10:59:33.649Z,2.57
2022-11-01T11:02:05.610Z,1.60
2022-11-01T11:04:34.263Z,2.07
2022-11-01T11:07:03.827Z,2.47
2022-11-01T11:09:35.293Z,2.23
2022-11-01T11:12:08.783Z,2.30
2022-11-01T11:14:41.348Z,2.50
2022-11-01T11:17:17.550Z,2.07
2022-11-01T11:19:47.993Z,1.90
2022-11-01T11:22:17.573Z,2.00
2022-11-01T11:24:46.694Z,2.17
2022-11-01T11:27:23.269Z,2.00
2022-11-01T11:29:54.388Z,2.23
2022-11-01T11:32:25.420Z,2.03
2022-11-01T11:34:58.590Z,2.10
2022-11-01T11:37:33.016Z,2.10
2022-11-01T11:40:21.076Z,2.17
2022-11-01T11:42:50.681Z,1.90
2022-11-01T11:45:30.965Z,1.80
2022-11-01T11:48:16.890Z,2.13
2022-11-01T11:50:45.301Z,2.03
2022-11-01T11:53:22.371Z,1.70
2022-11-01T11:55:55.939Z,2.33
2022-11-01T11:58:29.653Z,2.23
2022-11-01T12:01:04.629Z,2.77
2022-11-01T12:03:44.682Z,2.17
2022-11-01T12:06:20.138Z,2.23
2022-11-01T12:08:51.616Z,2.10
2022-11-01T12:11:20.183Z,1.80
2022-11-01T12:14:02.675Z,2.40
2022-11-01T12:16:31.333Z,2.13
2022-11-01T12:19:01.842Z,1.80
2022-11-01T12:21:34.749Z,1.70
2022-11-01T12:24:14.182Z,2.03
2022-11-01T12:26:43.738Z,2.00
2022-11-01T12:29:22.829Z,2.07
2022-11-01T12:31:56.302Z,1.77
2022-11-01T12:34:27.383Z,2.03
2022-11-01T12:37:00.018Z,1.57
2022-11-01T12:39:45.077Z,2.00
2022-11-01T12:42:19.684Z,1.57
2022-11-01T12:44:52.551Z,1.60
2022-11-01T12:47:25.530Z,2.40
2022-11-01T12:49:59.909Z,1.87
2022-11-01T12:52:32.601Z,1.83
2022-11-01T12:55:08.412Z,1.90
2022-11-01T12:57:40.355Z,2.00
2022-11-01T13:00:16.419Z,2.23
2022-11-01T13:03:07.369Z,2.17
2022-11-01T13:05:46.959Z,2.27
2022-11-01T13:08:22.786Z,2.53
2022-11-01T13:10:53.051Z,2.07
2022-11-01T13:13:27.453Z,2.00
2022-11-01T13:16:05.433Z,1.70
2022-11-01T13:18:48.389Z,2.17
2022-11-01T13:21:24.783Z,3.20
2022-11-01T13:23:59.901Z,2.10
2022-11-01T13:26:35.525Z,2.47
2022-11-01T13:29:13.394Z,1.90
2022-11-01T13:31:51.650Z,2.30
2022-11-01T13:34:29.519Z,2.40
2022-11-01T13:37:05.338Z,1.67
2022-11-01T13:39:49.508Z,1.80
2022-11-01T13:42:29.169Z,2.30
2022-11-01T13:45:17.799Z,1.93
2022-11-01T13:47:55.156Z,2.30
2022-11-01T13:50:50.836Z,1.73
2022-11-01T13:53:23.451Z,2.57
2022-11-01T13:55:56.636Z,2.20
2022-11-01T13:58:28.990Z,2.00
2022-11-01T14:01:37.582Z,1.60
2022-11-01T14:04:48.135Z,1.70
2022-11-01T14:07:18.326Z,2.20
2022-11-01T14:09:49.775Z,1.67
2022-11-01T14:12:40.962Z,1.83
2022-11-01T14:15:18.399Z,1.87
2022-11-01T14:18:07.464Z,1.83
2022-11-01T14:20:46.482Z,1.90
2022-11-01T14:23:52.397Z,1.90
2022-11-01T14:26:54.019Z,2.20
2022-11-01T14:29:22.273Z,1.63
2022-11-01T14:31:54.724Z,1.70
2022-11-01T14:34:35.418Z,1.73
2022-11-01T14:37:18.176Z,1.53
2022-11-01T14:39:54.637Z,1.40
2022-11-01T14:42:31.278Z,1.83
2022-11-01T14:45:02.167Z,1.90
2022-11-01T14:47:38.300Z,1.87
2022-11-01T14:50:17.147Z,2.00
2022-11-01T14:52:50.184Z,1.77
2022-11-01T14:55:21.906Z,1.57
2022-11-01T14:58:11.731Z,1.60
2022-11-01T15:00:40.701Z,1.80
2022-11-01T15:03:11.114Z,2.13
2022-11-01T15:05:47.692Z,2.13
2022-11-01T15:08:29.707Z,2.13
2022-11-01T15:11:01.167Z,1.87
2022-11-01T15:13:32.261Z,1.93
2022-11-01T15:16:06.032Z,1.80
2022-11-01T15:18:34.519Z,1.97
2022-11-01T15:21:03.268Z,2.40
2022-11-01T15:23:36.919Z,2.00
2022-11-01T15:26:08.946Z,1.80
2022-11-01T15:28:42.618Z,2.20
2022-11-01T15:31:11.101Z,2.40
2022-11-01T15:33:39.934Z,1.97
2022-11-01T15:36:19.515Z,1.90
2022-11-01T15:38:52.936Z,1.80
2022-11-01T15:41:23.211Z,1.70
2022-11-01T15:43:57.874Z,1.63
2022-11-01T15:46:29.521Z,2.30
2022-11-01T15:49:05.503Z,2.30
2022-11-01T15:51:42.071Z,2.60
2022-11-01T15:54:18.728Z,1.77
2022-11-01T15:56:51.368Z,1.80
2022-11-01T15:59:27.691Z,2.07
2022-11-01T16:01:59.803Z,1.90
2022-11-01T16:04:35.192Z,2.13
2022-11-01T16:07:06.186Z,2.60
2022-11-01T16:09:38.976Z,2.70
2022-11-01T16:12:16.154Z,2.27
2022-11-01T16:14:51.538Z,1.67
2022-11-01T16:17:25.840Z,2.00
2022-11-01T16:19:57.370Z,2.07
2022-11-01T16:22:31.323Z,1.50
2022-11-01T16:25:05.095Z,2.13
2022-11-01T16:27:36.581Z,2.20
2022-11-01T16:30:11.336Z,2.00
2022-11-01T16:32:39.475Z,1.83
2022-11-01T16:35:32.121Z,1.70
2022-11-01T16:38:00.783Z,2.63
2022-11-01T16:40:31.728Z,1.57
2022-11-01T16:43:02.259Z,2.03
2022-11-01T16:45:31.973Z,1.83
2022-11-01T16:48:00.780Z,1.93
2022-11-01T16:50:29.172Z,1.80
2022-11-01T16:52:57.366Z,1.67
2022-11-01T16:55:28.481Z,1.80
2022-11-01T16:57:57.912Z,1.70
2022-11-01T17:00:26.492Z,2.40
2022-11-01T17:02:58.054Z,2.03
2022-11-01T17:05:26.512Z,1.67
2022-11-01T17:07:55.374Z,1.70
2022-11-01T17:10:26.608Z,3.00
2022-11-01T17:12:57.815Z,5.83
2022-11-01T17:15:27.274Z,3.07
2022-11-01T17:17:56.922Z,4.77
2022-11-01T17:20:28.799Z,9.50
2022-11-01T17:22:58.787Z,2.47
2022-11-01T17:25:29.387Z,2.10
2022-11-01T17:27:57.873Z,1.77
2022-11-01T17:30:26.464Z,4.03
2022-11-01T17:32:56.044Z,4.03
2022-11-01T17:35:26.761Z,4.50
2022-11-01T17:37:56.380Z,2.50
2022-11-01T17:40:26.227Z,1.70
2022-11-01T17:42:55.233Z,2.13
2022-11-01T17:45:23.806Z,2.17
2022-11-01T17:47:54.611Z,1.80
2022-11-01T17:50:24.317Z,2.07
2022-11-01T17:52:52.922Z,1.87
2022-11-01T17:55:23.695Z,1.90
2022-11-01T17:57:51.932Z,1.90
2022-11-01T18:00:23.232Z,1.77
2022-11-01T18:02:51.467Z,1.70
2022-11-01T18:05:23.580Z,1.70
2022-11-01T18:07:53.598Z,1.97
2022-11-01T18:10:25.304Z,2.03
2022-11-01T18:13:14.053Z,1.70
2022-11-01T18:15:48.771Z,1.80
2022-11-01T18:18:34.589Z,2.10
2022-11-01T18:21:18.414Z,1.70
2022-11-01T18:23:49.192Z,1.70
2022-11-01T18:26:21.101Z,2.10
2022-11-01T18:28:49.402Z,1.83
2022-11-01T18:31:24.613Z,2.00
2022-11-01T18:33:59.266Z,2.30
2022-11-01T18:36:33.963Z,1.83
2022-11-01T18:39:13.621Z,1.87
2022-11-01T18:41:41.936Z,1.90
2022-11-01T18:44:14.469Z,1.33
2022-11-01T18:46:51.337Z,2.20
2022-11-01T18:49:19.536Z,1.70
2022-11-01T18:51:49.765Z,1.90
2022-11-01T18:54:26.288Z,1.87
2022-11-01T18:56:56.720Z,2.23
2022-11-01T18:59:31.171Z,1.50
2022-11-01T19:02:03.353Z,1.97
2022-11-01T19:04:35.722Z,2.43
2022-11-01T19:07:13.553Z,1.97
2022-11-01T19:09:44.061Z,1.70
2022-11-01T19:12:20.657Z,2.00
2022-11-01T19:14:58.634Z,1.50
2022-11-01T19:17:35.621Z,1.90
2022-11-01T19:20:05.265Z,1.80
2022-11-01T19:22:39.660Z,1.50
2022-11-01T19:25:22.471Z,1.93
2022-11-01T19:27:56.599Z,1.83
2022-11-01T19:30:27.021Z,1.40
2022-11-01T19:32:56.359Z,2.00
2022-11-01T19:35:26.613Z,2.10
2022-11-01T19:37:58.074Z,1.80
2022-11-01T19:40:28.896Z,1.63
2022-11-01T19:43:00.200Z,1.77
2022-11-01T19:45:34.089Z,1.90
2022-11-01T19:48:04.250Z,2.00
2022-11-01T19:50:39.553Z,2.13
2022-11-01T19:53:23.193Z,1.93
2022-11-01T19:55:54.431Z,1.80
2022-11-01T19:58:35.777Z,1.50
2022-11-01T20:01:33.132Z,2.50
2022-11-01T20:04:03.621Z,2.10
2022-11-01T20:06:37.371Z,1.33
2022-11-01T20:09:12.688Z,2.50
2022-11-01T20:11:41.386Z,2.00
2022-11-01T20:14:13.082Z,2.23
2022-11-01T20:16:41.343Z,1.77
2022-11-01T20:19:13.184Z,1.90
2022-11-01T20:21:44.648Z,1.77
2022-11-01T20:24:15.455Z,1.90
2022-11-01T20:26:43.827Z,2.03
2022-11-01T20:29:12.018Z,1.70
2022-11-01T20:31:40.666Z,1.80
2022-11-01T20:34:09.252Z,1.77
2022-11-01T20:36:38.685Z,2.37
2022-11-01T20:39:09.189Z,1.90
2022-11-01T20:41:43.388Z,2.23
2022-11-01T20:44:13.641Z,1.90
2022-11-01T20:46:44.878Z,2.20
2022-11-01T20:49:13.432Z,1.90
2022-11-01T20:51:41.758Z,2.27
2022-11-01T20:54:12.811Z,2.47
2022-11-01T20:56:46.309Z,2.13
2022-11-01T20:59:15.986Z,1.83
2022-11-01T21:01:50.225Z,1.97
2022-11-01T21:04:20.988Z,2.33
2022-11-01T21:06:49.138Z,2.10
2022-11-01T21:09:30.841Z,1.80
2022-11-01T21:12:03.120Z,1.77
2022-11-01T21:14:37.250Z,1.80
2022-11-01T21:17:15.077Z,2.23
2022-11-01T21:19:44.001Z,2.30
2022-11-01T21:22:19.798Z,2.53
2022-11-01T21:24:50.255Z,2.23
2022-11-01T21:27:27.487Z,2.07
2022-11-01T21:30:02.163Z,2.10
2022-11-01T21:32:36.367Z,2.07
2022-11-01T21:35:38.990Z,1.60
2022-11-01T21:38:31.949Z,2.17
2022-11-01T21:41:03.618Z,2.33
2022-11-01T21:43:35.631Z,2.77
2022-11-01T21:46:03.816Z,2.17
2022-11-01T21:48:32.316Z,2.60
2022-11-01T21:51:00.471Z,2.93
2022-11-01T21:53:30.848Z,2.57
2022-11-01T21:55:59.013Z,2.33
2022-11-01T21:58:27.171Z,2.53
2022-11-01T22:00:56.804Z,2.03
2022-11-01T22:03:24.963Z,1.80
2022-11-01T22:05:55.165Z,2.17
2022-11-01T22:08:25.923Z,1.90
2022-11-01T22:10:54.021Z,1.67
2022-11-01T22:13:22.146Z,2.13
2022-11-01T22:15:52.844Z,2.13
2022-11-01T22:18:25.119Z,2.30
2022-11-01T22:20:53.799Z,2.20
2022-11-01T22:23:24.093Z,1.97
2022-11-01T22:25:52.369Z,1.60
2022-11-01T22:28:20.501Z,2.60
2022-11-01T22:30:48.679Z,1.90
2022-11-01T22:33:16.808Z,1.90
2022-11-01T22:35:46.341Z,1.67
2022-11-01T22:38:19.476Z,2.00
2022-11-01T22:40:59.447Z,1.93
2022-11-01T22:43:27.614Z,2.17
2022-11-01T22:45:58.091Z,2.20
2022-11-01T22:48:26.194Z,2.47
2022-11-01T22:51:01.919Z,2.20
2022-11-01T22:53:29.995Z,2.23
2022-11-01T22:56:00.146Z,2.27
2022-11-01T22:58:34.721Z,2.03
2022-11-01T23:01:12.361Z,2.07
2022-11-01T23:03:41.869Z,1.57
2022-11-01T23:06:31.785Z,2.43
2022-11-01T23:09:13.898Z,2.00
2022-11-01T23:12:01.995Z,1.83
2022-11-01T23:14:39.267Z,2.10
2022-11-01T23:17:19.836Z,2.00
2022-11-01T23:19:56.562Z,2.20
2022-11-01T23:22:32.561Z,2.10
2022-11-01T23:25:00.680Z,2.23
2022-11-01T23:27:30.714Z,2.03
2022-11-01T23:30:03.333Z,2.10
2022-11-01T23:32:31.718Z,2.13
2022-11-01T23:35:10.798Z,2.27
2022-11-01T23:37:43.555Z,2.10
2022-11-01T23:40:16.424Z,2.33
2022-11-01T23:42:44.843Z,2.13
2022-11-01T23:45:23.025Z,2.40
2022-11-01T23:47:51.160Z,2.30
2022-11-01T23:50:23.576Z,2.23
2022-11-01T23:52:56.748Z,2.27
2022-11-01T23:55:29.376Z,2.17
2022-11-01T23:58:00.855Z,2.17
